sensor_id;sensor_type;location;lat;lon;timestamp;P1;durP1;ratioP1;P2;durP2;ratioP2
4636;SDS011;2331;48.806;9.140;2023-06-14T00:00:15;5.87;;;4.00;;
4636;SDS011;2331;48.806;9.140;2023-06-14T00:02:42;6.70;;;4.03;;
4636;SDS011;2331;48.806;9.140;2023-06-14T00:05:09;7.13;;;4.43;;
4636;SDS011;2331;48.806;9.140;2023-06-14T00:07:40;7.53;;;4.17;;
4636;SDS011;2331;48.806;9.140;2023-06-14T00:10:08;7.53;;;3.93;;
4636;SDS011;2331;48.806;9.140;2023-06-14T00:12:37;6.53;;;4.20;;
4636;SDS011;2331;48.806;9.140;2023-06-14T00:15:05;7.10;;;4.43;;
4636;SDS011;2331;48.806;9.140;2023-06-14T00:17:34;8.93;;;4.83;;
4636;SDS011;2331;48.806;9.140;2023-06-14T00:20:02;6.33;;;4.10;;
4636;SDS011;2331;48.806;9.140;2023-06-14T00:22:32;4.63;;;3.50;;
4636;SDS011;2331;48.806;9.140;2023-06-14T00:25:03;7.63;;;4.17;;
4636;SDS011;2331;48.806;9.140;2023-06-14T00:27:31;6.70;;;4.37;;
4636;SDS011;2331;48.806;9.140;2023-06-14T00:29:57;8.83;;;4.90;;
4636;SDS011;2331;48.806;9.140;2023-06-14T00:32:24;5.07;;;4.10;;
4636;SDS011;2331;48.806;9.140;2023-06-14T00:34:52;8.30;;;4.53;;
4636;SDS011;2331;48.806;9.140;2023-06-14T00:37:20;6.13;;;4.20;;
4636;SDS011;2331;48.806;9.140;2023-06-14T00:39:48;4.93;;;3.43;;
4636;SDS011;2331;48.806;9.140;2023-06-14T00:42:24;6.60;;;3.90;;
4636;SDS011;2331;48.806;9.140;2023-06-14T00:44:51;5.93;;;3.90;;
4636;SDS011;2331;48.806;9.140;2023-06-14T00:47:18;6.07;;;4.20;;
4636;SDS011;2331;48.806;9.140;2023-06-14T00:49:45;8.40;;;3.90;;
4636;SDS011;2331;48.806;9.140;2023-06-14T00:52:13;5.80;;;3.60;;
4636;SDS011;2331;48.806;9.140;2023-06-14T00:54:41;4.80;;;3.60;;
4636;SDS011;2331;48.806;9.140;2023-06-14T00:57:09;7.90;;;4.07;;
4636;SDS011;2331;48.806;9.140;2023-06-14T00:59:41;4.53;;;3.60;;
4636;SDS011;2331;48.806;9.140;2023-06-14T01:02:09;6.07;;;4.53;;
4636;SDS011;2331;48.806;9.140;2023-06-14T01:04:36;6.40;;;3.70;;
4636;SDS011;2331;48.806;9.140;2023-06-14T01:07:07;5.53;;;4.10;;
4636;SDS011;2331;48.806;9.140;2023-06-14T01:09:42;6.00;;;4.10;;
4636;SDS011;2331;48.806;9.140;2023-06-14T01:12:17;6.23;;;4.10;;
4636;SDS011;2331;48.806;9.140;2023-06-14T01:14:52;7.77;;;4.50;;
4636;SDS011;2331;48.806;9.140;2023-06-14T01:17:20;8.07;;;4.20;;
4636;SDS011;2331;48.806;9.140;2023-06-14T01:19:48;5.47;;;4.10;;
4636;SDS011;2331;48.806;9.140;2023-06-14T01:22:22;7.43;;;4.17;;
4636;SDS011;2331;48.806;9.140;2023-06-14T01:24:53;9.43;;;4.40;;
4636;SDS011;2331;48.806;9.140;2023-06-14T01:27:21;6.20;;;3.93;;
4636;SDS011;2331;48.806;9.140;2023-06-14T01:29:53;5.45;;;3.53;;
4636;SDS011;2331;48.806;9.140;2023-06-14T01:32:22;4.22;;;3.03;;
4636;SDS011;2331;48.806;9.140;2023-06-14T01:34:50;4.88;;;3.72;;
4636;SDS011;2331;48.806;9.140;2023-06-14T01:37:17;7.57;;;4.40;;
4636;SDS011;2331;48.806;9.140;2023-06-14T01:39:45;5.55;;;3.67;;
4636;SDS011;2331;48.806;9.140;2023-06-14T01:42:16;7.15;;;4.20;;
4636;SDS011;2331;48.806;9.140;2023-06-14T01:44:44;6.75;;;3.70;;
4636;SDS011;2331;48.806;9.140;2023-06-14T01:47:12;5.55;;;4.00;;
4636;SDS011;2331;48.806;9.140;2023-06-14T01:49:40;5.40;;;3.70;;
4636;SDS011;2331;48.806;9.140;2023-06-14T01:52:07;6.93;;;3.55;;
4636;SDS011;2331;48.806;9.140;2023-06-14T01:54:35;7.97;;;3.67;;
4636;SDS011;2331;48.806;9.140;2023-06-14T01:57:06;7.00;;;3.63;;
4636;SDS011;2331;48.806;9.140;2023-06-14T01:59:35;9.35;;;3.90;;
4636;SDS011;2331;48.806;9.140;2023-06-14T02:02:02;7.15;;;4.00;;
4636;SDS011;2331;48.806;9.140;2023-06-14T02:04:29;6.45;;;3.63;;
4636;SDS011;2331;48.806;9.140;2023-06-14T02:06:56;5.33;;;3.60;;
4636;SDS011;2331;48.806;9.140;2023-06-14T02:09:23;7.03;;;3.65;;
4636;SDS011;2331;48.806;9.140;2023-06-14T02:11:51;5.22;;;3.60;;
4636;SDS011;2331;48.806;9.140;2023-06-14T02:14:17;4.75;;;3.42;;
4636;SDS011;2331;48.806;9.140;2023-06-14T02:16:46;6.72;;;3.83;;
4636;SDS011;2331;48.806;9.140;2023-06-14T02:19:15;6.03;;;3.75;;
4636;SDS011;2331;48.806;9.140;2023-06-14T02:21:41;5.35;;;3.50;;
4636;SDS011;2331;48.806;9.140;2023-06-14T02:24:08;4.30;;;3.20;;
4636;SDS011;2331;48.806;9.140;2023-06-14T02:26:35;5.57;;;3.55;;
4636;SDS011;2331;48.806;9.140;2023-06-14T02:29:03;6.68;;;3.75;;
4636;SDS011;2331;48.806;9.140;2023-06-14T02:31:30;9.85;;;3.53;;
4636;SDS011;2331;48.806;9.140;2023-06-14T02:33:58;6.75;;;3.30;;
4636;SDS011;2331;48.806;9.140;2023-06-14T02:36:26;7.83;;;4.23;;
4636;SDS011;2331;48.806;9.140;2023-06-14T02:38:54;4.63;;;3.17;;
4636;SDS011;2331;48.806;9.140;2023-06-14T02:41:22;5.25;;;3.50;;
4636;SDS011;2331;48.806;9.140;2023-06-14T02:43:49;6.43;;;3.35;;
4636;SDS011;2331;48.806;9.140;2023-06-14T02:46:16;5.97;;;3.55;;
4636;SDS011;2331;48.806;9.140;2023-06-14T02:48:43;5.30;;;3.35;;
4636;SDS011;2331;48.806;9.140;2023-06-14T02:51:13;5.50;;;3.88;;
4636;SDS011;2331;48.806;9.140;2023-06-14T02:53:40;7.70;;;3.65;;
4636;SDS011;2331;48.806;9.140;2023-06-14T02:56:07;4.65;;;3.15;;
4636;SDS011;2331;48.806;9.140;2023-06-14T02:58:34;5.63;;;3.50;;
4636;SDS011;2331;48.806;9.140;2023-06-14T03:01:02;8.73;;;3.60;;
4636;SDS011;2331;48.806;9.140;2023-06-14T03:03:29;6.25;;;4.10;;
4636;SDS011;2331;48.806;9.140;2023-06-14T03:05:56;5.95;;;3.85;;
4636;SDS011;2331;48.806;9.140;2023-06-14T03:08:24;5.78;;;3.60;;
4636;SDS011;2331;48.806;9.140;2023-06-14T03:10:52;5.50;;;3.70;;
4636;SDS011;2331;48.806;9.140;2023-06-14T03:13:21;5.97;;;3.60;;
4636;SDS011;2331;48.806;9.140;2023-06-14T03:15:48;6.85;;;3.95;;
4636;SDS011;2331;48.806;9.140;2023-06-14T03:18:16;6.22;;;3.88;;
4636;SDS011;2331;48.806;9.140;2023-06-14T03:20:44;5.78;;;4.30;;
4636;SDS011;2331;48.806;9.140;2023-06-14T03:23:11;6.55;;;3.70;;
4636;SDS011;2331;48.806;9.140;2023-06-14T03:25:39;5.25;;;3.33;;
4636;SDS011;2331;48.806;9.140;2023-06-14T03:28:07;5.30;;;3.70;;
4636;SDS011;2331;48.806;9.140;2023-06-14T03:30:34;5.78;;;3.80;;
4636;SDS011;2331;48.806;9.140;2023-06-14T03:33:01;3.95;;;3.33;;
4636;SDS011;2331;48.806;9.140;2023-06-14T03:35:28;6.28;;;3.80;;
4636;SDS011;2331;48.806;9.140;2023-06-14T03:37:58;4.65;;;3.40;;
4636;SDS011;2331;48.806;9.140;2023-06-14T03:40:25;5.90;;;3.92;;
4636;SDS011;2331;48.806;9.140;2023-06-14T03:42:53;4.00;;;3.08;;
4636;SDS011;2331;48.806;9.140;2023-06-14T03:45:20;5.43;;;4.22;;
4636;SDS011;2331;48.806;9.140;2023-06-14T03:47:48;6.10;;;3.70;;
4636;SDS011;2331;48.806;9.140;2023-06-14T03:50:15;7.35;;;3.97;;
4636;SDS011;2331;48.806;9.140;2023-06-14T03:52:43;6.40;;;3.80;;
4636;SDS011;2331;48.806;9.140;2023-06-14T03:55:11;5.75;;;3.95;;
4636;SDS011;2331;48.806;9.140;2023-06-14T03:57:39;6.97;;;4.35;;
4636;SDS011;2331;48.806;9.140;2023-06-14T04:00:08;4.88;;;3.30;;
4636;SDS011;2331;48.806;9.140;2023-06-14T04:02:36;5.35;;;3.65;;
4636;SDS011;2331;48.806;9.140;2023-06-14T04:05:04;8.15;;;3.80;;
4636;SDS011;2331;48.806;9.140;2023-06-14T04:07:34;6.25;;;3.80;;
4636;SDS011;2331;48.806;9.140;2023-06-14T04:10:05;6.05;;;3.58;;
4636;SDS011;2331;48.806;9.140;2023-06-14T04:12:33;4.75;;;3.67;;
4636;SDS011;2331;48.806;9.140;2023-06-14T04:15:00;10.73;;;3.83;;
4636;SDS011;2331;48.806;9.140;2023-06-14T04:17:29;6.97;;;3.67;;
4636;SDS011;2331;48.806;9.140;2023-06-14T04:19:57;4.50;;;3.50;;
4636;SDS011;2331;48.806;9.140;2023-06-14T04:22:24;9.35;;;3.92;;
4636;SDS011;2331;48.806;9.140;2023-06-14T04:24:53;6.35;;;3.55;;
4636;SDS011;2331;48.806;9.140;2023-06-14T04:27:20;5.78;;;3.72;;
4636;SDS011;2331;48.806;9.140;2023-06-14T04:29:50;4.82;;;3.67;;
4636;SDS011;2331;48.806;9.140;2023-06-14T04:32:22;8.10;;;3.92;;
4636;SDS011;2331;48.806;9.140;2023-06-14T04:34:52;5.72;;;4.15;;
4636;SDS011;2331;48.806;9.140;2023-06-14T04:37:19;9.35;;;4.72;;
4636;SDS011;2331;48.806;9.140;2023-06-14T04:39:47;5.80;;;3.53;;
4636;SDS011;2331;48.806;9.140;2023-06-14T04:42:15;6.10;;;4.38;;
4636;SDS011;2331;48.806;9.140;2023-06-14T04:44:42;5.55;;;4.10;;
4636;SDS011;2331;48.806;9.140;2023-06-14T04:47:10;5.30;;;3.65;;
4636;SDS011;2331;48.806;9.140;2023-06-14T04:49:37;5.78;;;4.00;;
4636;SDS011;2331;48.806;9.140;2023-06-14T04:52:06;6.38;;;4.00;;
4636;SDS011;2331;48.806;9.140;2023-06-14T04:54:35;5.32;;;3.85;;
4636;SDS011;2331;48.806;9.140;2023-06-14T04:57:03;6.00;;;4.13;;
4636;SDS011;2331;48.806;9.140;2023-06-14T04:59:31;7.45;;;4.10;;
4636;SDS011;2331;48.806;9.140;2023-06-14T05:01:58;11.07;;;3.90;;
4636;SDS011;2331;48.806;9.140;2023-06-14T05:04:25;6.57;;;4.00;;
4636;SDS011;2331;48.806;9.140;2023-06-14T05:06:53;8.82;;;4.65;;
4636;SDS011;2331;48.806;9.140;2023-06-14T05:09:22;7.30;;;4.50;;
4636;SDS011;2331;48.806;9.140;2023-06-14T05:11:49;7.15;;;4.90;;
4636;SDS011;2331;48.806;9.140;2023-06-14T05:14:16;9.48;;;4.72;;
4636;SDS011;2331;48.806;9.140;2023-06-14T05:16:43;8.30;;;4.53;;
4636;SDS011;2331;48.806;9.140;2023-06-14T05:19:10;6.35;;;4.53;;
4636;SDS011;2331;48.806;9.140;2023-06-14T05:21:37;7.55;;;4.40;;
4636;SDS011;2331;48.806;9.140;2023-06-14T05:24:04;6.65;;;4.18;;
4636;SDS011;2331;48.806;9.140;2023-06-14T05:26:33;8.45;;;4.75;;
4636;SDS011;2331;48.806;9.140;2023-06-14T05:29:00;9.57;;;4.50;;
4636;SDS011;2331;48.806;9.140;2023-06-14T05:31:30;11.27;;;4.20;;
4636;SDS011;2331;48.806;9.140;2023-06-14T05:33:57;8.73;;;4.55;;
4636;SDS011;2331;48.806;9.140;2023-06-14T05:36:24;8.20;;;4.53;;
4636;SDS011;2331;48.806;9.140;2023-06-14T05:38:52;6.95;;;4.90;;
4636;SDS011;2331;48.806;9.140;2023-06-14T05:41:22;8.07;;;4.43;;
4636;SDS011;2331;48.806;9.140;2023-06-14T05:43:51;9.43;;;4.15;;
4636;SDS011;2331;48.806;9.140;2023-06-14T05:46:19;6.57;;;3.80;;
4636;SDS011;2331;48.806;9.140;2023-06-14T05:48:49;6.43;;;4.45;;
4636;SDS011;2331;48.806;9.140;2023-06-14T05:51:16;8.60;;;4.57;;
4636;SDS011;2331;48.806;9.140;2023-06-14T05:53:43;8.25;;;5.03;;
4636;SDS011;2331;48.806;9.140;2023-06-14T05:56:11;6.18;;;4.18;;
4636;SDS011;2331;48.806;9.140;2023-06-14T05:58:37;7.43;;;4.88;;
4636;SDS011;2331;48.806;9.140;2023-06-14T06:01:06;9.07;;;4.68;;
4636;SDS011;2331;48.806;9.140;2023-06-14T06:03:33;8.07;;;4.70;;
4636;SDS011;2331;48.806;9.140;2023-06-14T06:06:00;11.23;;;4.25;;
4636;SDS011;2331;48.806;9.140;2023-06-14T06:08:28;8.70;;;4.82;;
4636;SDS011;2331;48.806;9.140;2023-06-14T06:10:55;7.40;;;4.55;;
4636;SDS011;2331;48.806;9.140;2023-06-14T06:13:22;6.80;;;4.45;;
4636;SDS011;2331;48.806;9.140;2023-06-14T06:15:48;8.00;;;4.60;;
4636;SDS011;2331;48.806;9.140;2023-06-14T06:18:17;7.20;;;4.70;;
4636;SDS011;2331;48.806;9.140;2023-06-14T06:20:44;7.30;;;4.90;;
4636;SDS011;2331;48.806;9.140;2023-06-14T06:23:12;7.43;;;4.57;;
4636;SDS011;2331;48.806;9.140;2023-06-14T06:25:39;6.50;;;4.50;;
4636;SDS011;2331;48.806;9.140;2023-06-14T06:28:07;9.68;;;4.60;;
4636;SDS011;2331;48.806;9.140;2023-06-14T06:30:33;7.15;;;4.55;;
4636;SDS011;2331;48.806;9.140;2023-06-14T06:33:01;7.60;;;4.20;;
4636;SDS011;2331;48.806;9.140;2023-06-14T06:35:29;10.07;;;5.43;;
4636;SDS011;2331;48.806;9.140;2023-06-14T06:37:58;7.80;;;4.30;;
4636;SDS011;2331;48.806;9.140;2023-06-14T06:40:26;11.52;;;4.63;;
4636;SDS011;2331;48.806;9.140;2023-06-14T06:42:53;10.05;;;5.30;;
4636;SDS011;2331;48.806;9.140;2023-06-14T06:45:20;6.43;;;4.85;;
4636;SDS011;2331;48.806;9.140;2023-06-14T06:47:50;6.30;;;4.53;;
4636;SDS011;2331;48.806;9.140;2023-06-14T06:50:18;7.53;;;5.40;;
4636;SDS011;2331;48.806;9.140;2023-06-14T06:52:49;9.48;;;5.50;;
4636;SDS011;2331;48.806;9.140;2023-06-14T06:55:16;9.93;;;4.50;;
4636;SDS011;2331;48.806;9.140;2023-06-14T06:57:43;5.85;;;4.53;;
4636;SDS011;2331;48.806;9.140;2023-06-14T07:00:11;8.23;;;4.80;;
4636;SDS011;2331;48.806;9.140;2023-06-14T07:02:38;7.43;;;5.23;;
4636;SDS011;2331;48.806;9.140;2023-06-14T07:05:05;6.95;;;4.78;;
4636;SDS011;2331;48.806;9.140;2023-06-14T07:07:32;8.13;;;5.27;;
4636;SDS011;2331;48.806;9.140;2023-06-14T07:10:01;7.23;;;4.63;;
4636;SDS011;2331;48.806;9.140;2023-06-14T07:12:29;8.53;;;5.33;;
4636;SDS011;2331;48.806;9.140;2023-06-14T07:14:58;12.03;;;4.63;;
4636;SDS011;2331;48.806;9.140;2023-06-14T07:17:25;7.57;;;4.60;;
4636;SDS011;2331;48.806;9.140;2023-06-14T07:19:52;8.53;;;5.30;;
4636;SDS011;2331;48.806;9.140;2023-06-14T07:22:19;7.57;;;5.23;;
4636;SDS011;2331;48.806;9.140;2023-06-14T07:24:46;12.43;;;4.57;;
4636;SDS011;2331;48.806;9.140;2023-06-14T07:27:14;7.67;;;5.33;;
4636;SDS011;2331;48.806;9.140;2023-06-14T07:29:42;7.10;;;5.07;;
4636;SDS011;2331;48.806;9.140;2023-06-14T07:32:09;7.37;;;5.17;;
4636;SDS011;2331;48.806;9.140;2023-06-14T07:34:35;8.63;;;4.70;;
4636;SDS011;2331;48.806;9.140;2023-06-14T07:37:03;7.33;;;4.47;;
4636;SDS011;2331;48.806;9.140;2023-06-14T07:39:32;9.17;;;4.70;;
4636;SDS011;2331;48.806;9.140;2023-06-14T07:41:58;9.73;;;5.00;;
4636;SDS011;2331;48.806;9.140;2023-06-14T07:44:29;10.83;;;5.37;;
4636;SDS011;2331;48.806;9.140;2023-06-14T07:46:56;11.30;;;4.77;;
4636;SDS011;2331;48.806;9.140;2023-06-14T07:49:25;11.97;;;5.23;;
4636;SDS011;2331;48.806;9.140;2023-06-14T07:51:51;8.17;;;5.07;;
4636;SDS011;2331;48.806;9.140;2023-06-14T07:54:18;8.23;;;4.93;;
4636;SDS011;2331;48.806;9.140;2023-06-14T07:56:49;7.00;;;5.10;;
4636;SDS011;2331;48.806;9.140;2023-06-14T07:59:16;6.20;;;4.80;;
4636;SDS011;2331;48.806;9.140;2023-06-14T08:01:44;7.67;;;5.20;;
4636;SDS011;2331;48.806;9.140;2023-06-14T08:04:13;7.87;;;4.77;;
4636;SDS011;2331;48.806;9.140;2023-06-14T08:06:40;8.60;;;5.20;;
4636;SDS011;2331;48.806;9.140;2023-06-14T08:09:09;14.63;;;5.13;;
4636;SDS011;2331;48.806;9.140;2023-06-14T08:11:36;8.93;;;5.30;;
4636;SDS011;2331;48.806;9.140;2023-06-14T08:14:03;9.47;;;4.90;;
4636;SDS011;2331;48.806;9.140;2023-06-14T08:16:30;9.77;;;5.03;;
4636;SDS011;2331;48.806;9.140;2023-06-14T08:18:58;9.30;;;6.00;;
4636;SDS011;2331;48.806;9.140;2023-06-14T08:21:26;7.73;;;5.40;;
4636;SDS011;2331;48.806;9.140;2023-06-14T08:23:54;10.17;;;5.90;;
4636;SDS011;2331;48.806;9.140;2023-06-14T08:26:24;11.60;;;5.30;;
4636;SDS011;2331;48.806;9.140;2023-06-14T08:28:53;9.90;;;4.80;;
4636;SDS011;2331;48.806;9.140;2023-06-14T08:31:24;8.77;;;5.10;;
4636;SDS011;2331;48.806;9.140;2023-06-14T08:34:07;9.80;;;5.80;;
4636;SDS011;2331;48.806;9.140;2023-06-14T08:36:35;6.17;;;4.80;;
4636;SDS011;2331;48.806;9.140;2023-06-14T08:39:07;13.13;;;5.57;;
4636;SDS011;2331;48.806;9.140;2023-06-14T08:41:34;10.10;;;5.50;;
4636;SDS011;2331;48.806;9.140;2023-06-14T08:44:02;8.03;;;4.93;;
4636;SDS011;2331;48.806;9.140;2023-06-14T08:46:32;6.63;;;4.60;;
4636;SDS011;2331;48.806;9.140;2023-06-14T08:49:00;6.97;;;5.10;;
4636;SDS011;2331;48.806;9.140;2023-06-14T08:51:29;12.83;;;4.90;;
4636;SDS011;2331;48.806;9.140;2023-06-14T08:53:59;7.30;;;4.87;;
4636;SDS011;2331;48.806;9.140;2023-06-14T08:56:29;13.00;;;5.33;;
4636;SDS011;2331;48.806;9.140;2023-06-14T08:58:57;13.07;;;6.17;;
4636;SDS011;2331;48.806;9.140;2023-06-14T09:01:27;7.93;;;5.33;;
4636;SDS011;2331;48.806;9.140;2023-06-14T09:03:56;8.43;;;4.80;;
4636;SDS011;2331;48.806;9.140;2023-06-14T09:06:24;10.70;;;5.17;;
4636;SDS011;2331;48.806;9.140;2023-06-14T09:08:54;9.47;;;5.27;;
4636;SDS011;2331;48.806;9.140;2023-06-14T09:11:22;12.07;;;5.40;;
4636;SDS011;2331;48.806;9.140;2023-06-14T09:13:51;11.17;;;5.20;;
4636;SDS011;2331;48.806;9.140;2023-06-14T09:16:18;8.13;;;5.33;;
4636;SDS011;2331;48.806;9.140;2023-06-14T09:18:45;13.00;;;5.00;;
4636;SDS011;2331;48.806;9.140;2023-06-14T09:21:13;9.03;;;5.00;;
4636;SDS011;2331;48.806;9.140;2023-06-14T09:23:42;10.83;;;5.37;;
4636;SDS011;2331;48.806;9.140;2023-06-14T09:26:11;7.67;;;5.53;;
4636;SDS011;2331;48.806;9.140;2023-06-14T09:28:42;11.90;;;5.63;;
4636;SDS011;2331;48.806;9.140;2023-06-14T09:31:10;7.80;;;4.93;;
4636;SDS011;2331;48.806;9.140;2023-06-14T09:33:37;10.60;;;5.03;;
4636;SDS011;2331;48.806;9.140;2023-06-14T09:36:04;8.43;;;5.30;;
4636;SDS011;2331;48.806;9.140;2023-06-14T09:38:35;7.20;;;5.03;;
4636;SDS011;2331;48.806;9.140;2023-06-14T09:41:02;7.57;;;5.13;;
4636;SDS011;2331;48.806;9.140;2023-06-14T09:43:31;9.30;;;5.53;;
4636;SDS011;2331;48.806;9.140;2023-06-14T09:46:00;8.83;;;5.30;;
4636;SDS011;2331;48.806;9.140;2023-06-14T09:48:27;7.80;;;5.17;;
4636;SDS011;2331;48.806;9.140;2023-06-14T09:50:54;7.70;;;5.30;;
4636;SDS011;2331;48.806;9.140;2023-06-14T09:53:24;7.10;;;5.20;;
4636;SDS011;2331;48.806;9.140;2023-06-14T09:55:52;8.60;;;5.20;;
4636;SDS011;2331;48.806;9.140;2023-06-14T09:58:23;6.10;;;4.30;;
4636;SDS011;2331;48.806;9.140;2023-06-14T10:00:55;14.13;;;5.10;;
4636;SDS011;2331;48.806;9.140;2023-06-14T10:03:24;10.50;;;5.67;;
4636;SDS011;2331;48.806;9.140;2023-06-14T10:05:54;9.00;;;5.60;;
4636;SDS011;2331;48.806;9.140;2023-06-14T10:08:27;7.23;;;4.53;;
4636;SDS011;2331;48.806;9.140;2023-06-14T10:10:59;11.93;;;5.40;;
4636;SDS011;2331;48.806;9.140;2023-06-14T10:13:42;8.37;;;5.03;;
4636;SDS011;2331;48.806;9.140;2023-06-14T10:16:12;7.23;;;4.17;;
4636;SDS011;2331;48.806;9.140;2023-06-14T10:18:44;6.90;;;4.87;;
4636;SDS011;2331;48.806;9.140;2023-06-14T10:21:18;10.30;;;4.70;;
4636;SDS011;2331;48.806;9.140;2023-06-14T10:23:49;8.30;;;4.37;;
4636;SDS011;2331;48.806;9.140;2023-06-14T10:26:20;7.70;;;4.40;;
4636;SDS011;2331;48.806;9.140;2023-06-14T10:28:55;9.33;;;4.50;;
4636;SDS011;2331;48.806;9.140;2023-06-14T10:31:26;10.87;;;5.00;;
4636;SDS011;2331;48.806;9.140;2023-06-14T10:34:06;9.63;;;4.77;;
4636;SDS011;2331;48.806;9.140;2023-06-14T10:36:33;10.33;;;6.30;;
4636;SDS011;2331;48.806;9.140;2023-06-14T10:39:03;12.13;;;6.33;;
4636;SDS011;2331;48.806;9.140;2023-06-14T10:41:34;9.90;;;5.87;;
4636;SDS011;2331;48.806;9.140;2023-06-14T10:47:07;12.17;;;5.03;;
4636;SDS011;2331;48.806;9.140;2023-06-14T10:49:36;11.10;;;6.30;;
4636;SDS011;2331;48.806;9.140;2023-06-14T10:52:07;10.63;;;5.53;;
4636;SDS011;2331;48.806;9.140;2023-06-14T10:54:55;10.10;;;5.47;;
4636;SDS011;2331;48.806;9.140;2023-06-14T10:57:34;10.00;;;4.90;;
4636;SDS011;2331;48.806;9.140;2023-06-14T11:00:03;7.03;;;4.53;;
4636;SDS011;2331;48.806;9.140;2023-06-14T11:05:48;6.80;;;4.70;;
4636;SDS011;2331;48.806;9.140;2023-06-14T11:11:31;9.50;;;5.53;;
4636;SDS011;2331;48.806;9.140;2023-06-14T11:13:59;7.60;;;4.30;;
4636;SDS011;2331;48.806;9.140;2023-06-14T11:16:28;6.90;;;4.77;;
4636;SDS011;2331;48.806;9.140;2023-06-14T11:18:59;9.43;;;3.90;;
4636;SDS011;2331;48.806;9.140;2023-06-14T11:21:28;8.93;;;4.77;;
4636;SDS011;2331;48.806;9.140;2023-06-14T11:23:58;6.37;;;3.93;;
4636;SDS011;2331;48.806;9.140;2023-06-14T11:26:25;6.33;;;3.87;;
4636;SDS011;2331;48.806;9.140;2023-06-14T11:28:54;6.70;;;4.07;;
4636;SDS011;2331;48.806;9.140;2023-06-14T11:31:22;6.07;;;4.10;;
4636;SDS011;2331;48.806;9.140;2023-06-14T11:33:49;13.60;;;4.37;;
4636;SDS011;2331;48.806;9.140;2023-06-14T11:36:25;9.00;;;4.47;;
4636;SDS011;2331;48.806;9.140;2023-06-14T11:38:57;6.83;;;4.40;;
4636;SDS011;2331;48.806;9.140;2023-06-14T11:41:25;8.10;;;4.47;;
4636;SDS011;2331;48.806;9.140;2023-06-14T11:43:52;9.77;;;4.50;;
4636;SDS011;2331;48.806;9.140;2023-06-14T11:46:19;9.03;;;4.60;;
4636;SDS011;2331;48.806;9.140;2023-06-14T11:48:49;7.70;;;4.50;;
4636;SDS011;2331;48.806;9.140;2023-06-14T11:51:15;6.27;;;4.10;;
4636;SDS011;2331;48.806;9.140;2023-06-14T11:53:46;8.30;;;4.47;;
4636;SDS011;2331;48.806;9.140;2023-06-14T11:56:13;6.47;;;3.73;;
4636;SDS011;2331;48.806;9.140;2023-06-14T11:58:42;7.50;;;4.23;;
4636;SDS011;2331;48.806;9.140;2023-06-14T12:01:09;6.43;;;4.37;;
4636;SDS011;2331;48.806;9.140;2023-06-14T12:03:46;11.97;;;4.37;;
4636;SDS011;2331;48.806;9.140;2023-06-14T12:06:13;8.83;;;4.53;;
4636;SDS011;2331;48.806;9.140;2023-06-14T12:08:40;6.30;;;4.20;;
4636;SDS011;2331;48.806;9.140;2023-06-14T12:11:12;8.90;;;4.17;;
4636;SDS011;2331;48.806;9.140;2023-06-14T12:13:40;7.03;;;3.90;;
4636;SDS011;2331;48.806;9.140;2023-06-14T12:16:07;6.63;;;3.63;;
4636;SDS011;2331;48.806;9.140;2023-06-14T12:18:35;7.33;;;4.00;;
4636;SDS011;2331;48.806;9.140;2023-06-14T12:21:03;7.90;;;3.80;;
4636;SDS011;2331;48.806;9.140;2023-06-14T12:23:43;7.27;;;4.13;;
4636;SDS011;2331;48.806;9.140;2023-06-14T12:26:16;6.00;;;3.83;;
4636;SDS011;2331;48.806;9.140;2023-06-14T12:28:45;6.97;;;4.30;;
4636;SDS011;2331;48.806;9.140;2023-06-14T12:31:13;7.30;;;4.10;;
4636;SDS011;2331;48.806;9.140;2023-06-14T12:33:41;8.40;;;4.37;;
4636;SDS011;2331;48.806;9.140;2023-06-14T12:36:10;6.27;;;3.53;;
4636;SDS011;2331;48.806;9.140;2023-06-14T12:38:37;5.70;;;3.90;;
4636;SDS011;2331;48.806;9.140;2023-06-14T12:41:04;11.30;;;4.27;;
4636;SDS011;2331;48.806;9.140;2023-06-14T12:43:32;6.27;;;4.00;;
4636;SDS011;2331;48.806;9.140;2023-06-14T12:45:59;11.67;;;4.07;;
4636;SDS011;2331;48.806;9.140;2023-06-14T12:48:26;5.93;;;3.93;;
4636;SDS011;2331;48.806;9.140;2023-06-14T12:50:54;11.27;;;4.60;;
4636;SDS011;2331;48.806;9.140;2023-06-14T12:53:21;5.83;;;4.10;;
4636;SDS011;2331;48.806;9.140;2023-06-14T12:55:48;7.87;;;4.17;;
4636;SDS011;2331;48.806;9.140;2023-06-14T12:58:15;7.80;;;4.47;;
4636;SDS011;2331;48.806;9.140;2023-06-14T13:00:46;11.20;;;4.20;;
4636;SDS011;2331;48.806;9.140;2023-06-14T13:03:13;6.70;;;4.10;;
4636;SDS011;2331;48.806;9.140;2023-06-14T13:05:40;6.30;;;3.80;;
4636;SDS011;2331;48.806;9.140;2023-06-14T13:08:08;8.17;;;4.07;;
4636;SDS011;2331;48.806;9.140;2023-06-14T13:10:35;8.50;;;4.00;;
4636;SDS011;2331;48.806;9.140;2023-06-14T13:13:01;7.77;;;4.20;;
4636;SDS011;2331;48.806;9.140;2023-06-14T13:15:29;6.13;;;4.30;;
4636;SDS011;2331;48.806;9.140;2023-06-14T13:17:57;6.43;;;4.10;;
4636;SDS011;2331;48.806;9.140;2023-06-14T13:20:24;9.20;;;3.67;;
4636;SDS011;2331;48.806;9.140;2023-06-14T13:22:51;10.57;;;4.10;;
4636;SDS011;2331;48.806;9.140;2023-06-14T13:25:18;8.67;;;3.80;;
4636;SDS011;2331;48.806;9.140;2023-06-14T13:27:45;6.17;;;3.90;;
4636;SDS011;2331;48.806;9.140;2023-06-14T13:30:12;6.67;;;4.33;;
4636;SDS011;2331;48.806;9.140;2023-06-14T13:32:38;7.63;;;4.03;;
4636;SDS011;2331;48.806;9.140;2023-06-14T13:35:07;8.93;;;4.50;;
4636;SDS011;2331;48.806;9.140;2023-06-14T13:37:34;8.97;;;4.23;;
4636;SDS011;2331;48.806;9.140;2023-06-14T13:40:00;7.53;;;4.07;;
4636;SDS011;2331;48.806;9.140;2023-06-14T13:42:27;6.17;;;3.70;;
4636;SDS011;2331;48.806;9.140;2023-06-14T13:44:56;16.33;;;4.37;;
4636;SDS011;2331;48.806;9.140;2023-06-14T13:47:23;6.30;;;4.30;;
4636;SDS011;2331;48.806;9.140;2023-06-14T13:49:50;5.70;;;4.10;;
4636;SDS011;2331;48.806;9.140;2023-06-14T13:52:18;8.10;;;4.17;;
4636;SDS011;2331;48.806;9.140;2023-06-14T13:54:45;11.13;;;4.23;;
4636;SDS011;2331;48.806;9.140;2023-06-14T13:57:11;7.27;;;4.20;;
4636;SDS011;2331;48.806;9.140;2023-06-14T13:59:38;7.30;;;4.40;;
4636;SDS011;2331;48.806;9.140;2023-06-14T14:02:05;9.07;;;4.10;;
4636;SDS011;2331;48.806;9.140;2023-06-14T14:04:32;7.17;;;4.10;;
4636;SDS011;2331;48.806;9.140;2023-06-14T14:07:00;6.23;;;3.80;;
4636;SDS011;2331;48.806;9.140;2023-06-14T14:09:28;5.73;;;4.00;;
4636;SDS011;2331;48.806;9.140;2023-06-14T14:11:55;7.27;;;4.03;;
4636;SDS011;2331;48.806;9.140;2023-06-14T14:14:22;8.33;;;4.83;;
4636;SDS011;2331;48.806;9.140;2023-06-14T14:16:49;8.20;;;4.37;;
4636;SDS011;2331;48.806;9.140;2023-06-14T14:19:18;6.70;;;3.93;;
4636;SDS011;2331;48.806;9.140;2023-06-14T14:21:45;7.43;;;3.80;;
4636;SDS011;2331;48.806;9.140;2023-06-14T14:24:12;10.37;;;4.67;;
4636;SDS011;2331;48.806;9.140;2023-06-14T14:26:40;5.30;;;4.13;;
4636;SDS011;2331;48.806;9.140;2023-06-14T14:29:07;7.60;;;4.17;;
4636;SDS011;2331;48.806;9.140;2023-06-14T14:31:36;6.00;;;4.33;;
4636;SDS011;2331;48.806;9.140;2023-06-14T14:34:03;6.83;;;4.20;;
4636;SDS011;2331;48.806;9.140;2023-06-14T14:36:30;8.27;;;4.07;;
4636;SDS011;2331;48.806;9.140;2023-06-14T14:38:58;8.70;;;4.07;;
4636;SDS011;2331;48.806;9.140;2023-06-14T14:41:25;7.23;;;4.30;;
4636;SDS011;2331;48.806;9.140;2023-06-14T14:43:53;7.63;;;4.10;;
4636;SDS011;2331;48.806;9.140;2023-06-14T14:46:19;5.87;;;3.60;;
4636;SDS011;2331;48.806;9.140;2023-06-14T14:48:46;7.67;;;4.17;;
4636;SDS011;2331;48.806;9.140;2023-06-14T14:51:15;6.23;;;4.03;;
4636;SDS011;2331;48.806;9.140;2023-06-14T14:53:42;7.40;;;4.23;;
4636;SDS011;2331;48.806;9.140;2023-06-14T14:56:08;8.97;;;3.70;;
4636;SDS011;2331;48.806;9.140;2023-06-14T14:58:36;7.03;;;4.20;;
4636;SDS011;2331;48.806;9.140;2023-06-14T15:01:05;7.10;;;3.53;;
4636;SDS011;2331;48.806;9.140;2023-06-14T15:03:32;5.57;;;3.83;;
4636;SDS011;2331;48.806;9.140;2023-06-14T15:05:58;6.83;;;3.90;;
4636;SDS011;2331;48.806;9.140;2023-06-14T15:08:25;5.40;;;3.50;;
4636;SDS011;2331;48.806;9.140;2023-06-14T15:10:52;6.90;;;4.07;;
4636;SDS011;2331;48.806;9.140;2023-06-14T15:13:19;5.13;;;3.97;;
4636;SDS011;2331;48.806;9.140;2023-06-14T15:15:46;7.17;;;4.17;;
4636;SDS011;2331;48.806;9.140;2023-06-14T15:18:14;11.13;;;3.83;;
4636;SDS011;2331;48.806;9.140;2023-06-14T15:20:41;6.60;;;3.90;;
4636;SDS011;2331;48.806;9.140;2023-06-14T15:23:08;6.53;;;4.33;;
4636;SDS011;2331;48.806;9.140;2023-06-14T15:25:35;10.13;;;4.00;;
4636;SDS011;2331;48.806;9.140;2023-06-14T15:28:02;6.70;;;3.77;;